sensor_id;sensor_type;location;lat;lon;timestamp;P1;durP1;ratioP1;P2;durP2;ratioP2
7338;SDS011;33747;49.524;8.390;2023-08-06T00:00:45;11.43;;;2.80;;
7338;SDS011;33747;49.524;8.390;2023-08-06T00:03:10;5.32;;;2.72;;
7338;SDS011;33747;49.524;8.390;2023-08-06T00:05:36;7.32;;;2.50;;
7338;SDS011;33747;49.524;8.390;2023-08-06T00:08:01;6.13;;;2.33;;
7338;SDS011;33747;49.524;8.390;2023-08-06T00:10:27;3.33;;;2.53;;
7338;SDS011;33747;49.524;8.390;2023-08-06T00:12:52;6.82;;;2.20;;
7338;SDS011;33747;49.524;8.390;2023-08-06T00:15:18;3.35;;;2.42;;
7338;SDS011;33747;49.524;8.390;2023-08-06T00:17:43;5.20;;;2.47;;
7338;SDS011;33747;49.524;8.390;2023-08-06T00:20:08;3.28;;;2.40;;
7338;SDS011;33747;49.524;8.390;2023-08-06T00:22:35;2.55;;;2.20;;
7338;SDS011;33747;49.524;8.390;2023-08-06T00:25:02;3.47;;;2.60;;
7338;SDS011;33747;49.524;8.390;2023-08-06T00:27:28;6.07;;;2.35;;
7338;SDS011;33747;49.524;8.390;2023-08-06T00:29:53;4.00;;;2.50;;
7338;SDS011;33747;49.524;8.390;2023-08-06T00:32:19;5.30;;;2.45;;
7338;SDS011;33747;49.524;8.390;2023-08-06T00:34:44;2.00;;;1.90;;
7338;SDS011;33747;49.524;8.390;2023-08-06T00:37:10;6.07;;;2.70;;
7338;SDS011;33747;49.524;8.390;2023-08-06T00:39:35;2.63;;;2.10;;
7338;SDS011;33747;49.524;8.390;2023-08-06T00:42:00;6.13;;;2.13;;
7338;SDS011;33747;49.524;8.390;2023-08-06T00:44:26;2.30;;;2.10;;
7338;SDS011;33747;49.524;8.390;2023-08-06T00:46:51;2.17;;;1.98;;
7338;SDS011;33747;49.524;8.390;2023-08-06T00:49:16;3.95;;;1.83;;
7338;SDS011;33747;49.524;8.390;2023-08-06T00:51:42;4.03;;;2.10;;
7338;SDS011;33747;49.524;8.390;2023-08-06T00:54:08;2.97;;;2.10;;
7338;SDS011;33747;49.524;8.390;2023-08-06T00:56:34;5.13;;;2.20;;
7338;SDS011;33747;49.524;8.390;2023-08-06T00:59:00;2.33;;;2.00;;
7338;SDS011;33747;49.524;8.390;2023-08-06T01:01:26;2.80;;;2.15;;
7338;SDS011;33747;49.524;8.390;2023-08-06T01:03:52;4.90;;;2.50;;
7338;SDS011;33747;49.524;8.390;2023-08-06T01:06:19;4.15;;;1.88;;
7338;SDS011;33747;49.524;8.390;2023-08-06T01:08:51;3.83;;;2.15;;
7338;SDS011;33747;49.524;8.390;2023-08-06T01:11:27;5.97;;;2.15;;
7338;SDS011;33747;49.524;8.390;2023-08-06T01:14:06;1.98;;;1.88;;
7338;SDS011;33747;49.524;8.390;2023-08-06T01:16:35;6.35;;;3.05;;
7338;SDS011;33747;49.524;8.390;2023-08-06T01:19:01;2.92;;;1.92;;
7338;SDS011;33747;49.524;8.390;2023-08-06T01:21:27;2.60;;;2.03;;
7338;SDS011;33747;49.524;8.390;2023-08-06T01:23:52;3.47;;;2.08;;
7338;SDS011;33747;49.524;8.390;2023-08-06T01:26:21;4.75;;;2.10;;
7338;SDS011;33747;49.524;8.390;2023-08-06T01:31:19;4.65;;;1.73;;
7338;SDS011;33747;49.524;8.390;2023-08-06T01:33:47;2.75;;;2.00;;
7338;SDS011;33747;49.524;8.390;2023-08-06T01:36:13;2.30;;;2.10;;
7338;SDS011;33747;49.524;8.390;2023-08-06T01:38:43;2.17;;;1.98;;
7338;SDS011;33747;49.524;8.390;2023-08-06T01:41:08;7.75;;;2.10;;
7338;SDS011;33747;49.524;8.390;2023-08-06T01:43:34;1.70;;;1.60;;
7338;SDS011;33747;49.524;8.390;2023-08-06T01:45:59;2.08;;;1.80;;
7338;SDS011;33747;49.524;8.390;2023-08-06T01:48:25;2.30;;;1.98;;
7338;SDS011;33747;49.524;8.390;2023-08-06T01:50:50;2.13;;;1.88;;
7338;SDS011;33747;49.524;8.390;2023-08-06T01:53:15;2.20;;;1.77;;
7338;SDS011;33747;49.524;8.390;2023-08-06T01:55:41;5.57;;;2.28;;
7338;SDS011;33747;49.524;8.390;2023-08-06T01:58:06;7.03;;;1.80;;
7338;SDS011;33747;49.524;8.390;2023-08-06T02:00:31;7.32;;;2.40;;
7338;SDS011;33747;49.524;8.390;2023-08-06T02:02:57;6.63;;;2.08;;
7338;SDS011;33747;49.524;8.390;2023-08-06T02:05:22;5.55;;;2.05;;
7338;SDS011;33747;49.524;8.390;2023-08-06T02:07:48;2.08;;;1.85;;
7338;SDS011;33747;49.524;8.390;2023-08-06T02:10:13;3.88;;;1.98;;
7338;SDS011;33747;49.524;8.390;2023-08-06T02:12:38;2.85;;;2.15;;
7338;SDS011;33747;49.524;8.390;2023-08-06T02:15:04;2.58;;;2.08;;
7338;SDS011;33747;49.524;8.390;2023-08-06T02:17:30;3.97;;;2.30;;
7338;SDS011;33747;49.524;8.390;2023-08-06T02:19:55;3.17;;;2.05;;
7338;SDS011;33747;49.524;8.390;2023-08-06T02:22:20;3.70;;;2.35;;
7338;SDS011;33747;49.524;8.390;2023-08-06T02:24:46;3.55;;;2.20;;
7338;SDS011;33747;49.524;8.390;2023-08-06T02:27:11;2.92;;;2.00;;
7338;SDS011;33747;49.524;8.390;2023-08-06T02:29:36;4.32;;;2.40;;
7338;SDS011;33747;49.524;8.390;2023-08-06T02:32:02;3.38;;;2.13;;
7338;SDS011;33747;49.524;8.390;2023-08-06T02:34:27;2.65;;;1.80;;
7338;SDS011;33747;49.524;8.390;2023-08-06T02:36:53;6.38;;;2.40;;
7338;SDS011;33747;49.524;8.390;2023-08-06T02:39:18;4.00;;;2.15;;
7338;SDS011;33747;49.524;8.390;2023-08-06T02:41:44;2.72;;;2.22;;
7338;SDS011;33747;49.524;8.390;2023-08-06T02:44:09;3.10;;;2.30;;
7338;SDS011;33747;49.524;8.390;2023-08-06T02:46:34;6.28;;;1.95;;
7338;SDS011;33747;49.524;8.390;2023-08-06T02:49:00;7.03;;;1.98;;
7338;SDS011;33747;49.524;8.390;2023-08-06T02:51:25;3.17;;;1.80;;
7338;SDS011;33747;49.524;8.390;2023-08-06T02:53:51;2.47;;;2.28;;
7338;SDS011;33747;49.524;8.390;2023-08-06T02:56:16;4.32;;;2.05;;
7338;SDS011;33747;49.524;8.390;2023-08-06T02:58:41;2.10;;;1.63;;
7338;SDS011;33747;49.524;8.390;2023-08-06T03:01:07;11.80;;;1.80;;
7338;SDS011;33747;49.524;8.390;2023-08-06T03:03:32;4.35;;;1.75;;
7338;SDS011;33747;49.524;8.390;2023-08-06T03:05:58;3.22;;;1.73;;
7338;SDS011;33747;49.524;8.390;2023-08-06T03:08:24;3.42;;;1.90;;
7338;SDS011;33747;49.524;8.390;2023-08-06T03:10:50;7.75;;;1.90;;
7338;SDS011;33747;49.524;8.390;2023-08-06T03:13:19;2.85;;;1.88;;
7338;SDS011;33747;49.524;8.390;2023-08-06T03:18:19;2.08;;;1.67;;
7338;SDS011;33747;49.524;8.390;2023-08-06T03:20:46;4.00;;;1.70;;
7338;SDS011;33747;49.524;8.390;2023-08-06T03:23:11;4.55;;;2.08;;
7338;SDS011;33747;49.524;8.390;2023-08-06T03:25:36;4.88;;;1.75;;
7338;SDS011;33747;49.524;8.390;2023-08-06T03:28:02;4.55;;;1.75;;
7338;SDS011;33747;49.524;8.390;2023-08-06T03:30:27;1.90;;;1.73;;
7338;SDS011;33747;49.524;8.390;2023-08-06T03:32:53;2.75;;;1.80;;
7338;SDS011;33747;49.524;8.390;2023-08-06T03:35:18;4.05;;;1.88;;
7338;SDS011;33747;49.524;8.390;2023-08-06T03:37:43;5.32;;;2.38;;
7338;SDS011;33747;49.524;8.390;2023-08-06T03:40:09;3.10;;;1.88;;
7338;SDS011;33747;49.524;8.390;2023-08-06T03:42:35;4.07;;;1.90;;
7338;SDS011;33747;49.524;8.390;2023-08-06T03:45:00;4.28;;;1.77;;
7338;SDS011;33747;49.524;8.390;2023-08-06T03:47:25;9.48;;;1.77;;
7338;SDS011;33747;49.524;8.390;2023-08-06T03:49:51;4.10;;;1.50;;
7338;SDS011;33747;49.524;8.390;2023-08-06T03:52:16;3.33;;;1.40;;
7338;SDS011;33747;49.524;8.390;2023-08-06T03:54:42;3.47;;;1.83;;
7338;SDS011;33747;49.524;8.390;2023-08-06T03:57:08;2.63;;;1.83;;
7338;SDS011;33747;49.524;8.390;2023-08-06T03:59:33;4.57;;;1.40;;
7338;SDS011;33747;49.524;8.390;2023-08-06T04:01:59;2.17;;;1.40;;
7338;SDS011;33747;49.524;8.390;2023-08-06T04:04:24;6.55;;;1.50;;
7338;SDS011;33747;49.524;8.390;2023-08-06T04:06:49;3.47;;;1.52;;
7338;SDS011;33747;49.524;8.390;2023-08-06T04:09:15;2.85;;;2.10;;
7338;SDS011;33747;49.524;8.390;2023-08-06T04:11:40;2.30;;;1.50;;
7338;SDS011;33747;49.524;8.390;2023-08-06T04:14:06;1.70;;;1.40;;
7338;SDS011;33747;49.524;8.390;2023-08-06T04:16:31;2.72;;;1.95;;
7338;SDS011;33747;49.524;8.390;2023-08-06T04:18:56;2.45;;;1.42;;
7338;SDS011;33747;49.524;8.390;2023-08-06T04:21:23;4.50;;;1.90;;
7338;SDS011;33747;49.524;8.390;2023-08-06T04:23:48;2.67;;;1.42;;
7338;SDS011;33747;49.524;8.390;2023-08-06T04:26:14;7.25;;;1.65;;
7338;SDS011;33747;49.524;8.390;2023-08-06T04:28:39;8.88;;;1.85;;
7338;SDS011;33747;49.524;8.390;2023-08-06T04:31:04;4.60;;;1.55;;
7338;SDS011;33747;49.524;8.390;2023-08-06T04:33:30;4.18;;;1.80;;
7338;SDS011;33747;49.524;8.390;2023-08-06T04:35:55;3.30;;;1.40;;
7338;SDS011;33747;49.524;8.390;2023-08-06T04:38:21;3.58;;;1.35;;
7338;SDS011;33747;49.524;8.390;2023-08-06T04:40:47;3.13;;;1.55;;
7338;SDS011;33747;49.524;8.390;2023-08-06T04:43:13;3.15;;;1.75;;
7338;SDS011;33747;49.524;8.390;2023-08-06T04:45:38;5.22;;;1.20;;
7338;SDS011;33747;49.524;8.390;2023-08-06T04:48:10;2.35;;;1.40;;
7338;SDS011;33747;49.524;8.390;2023-08-06T04:50:36;3.67;;;1.25;;
7338;SDS011;33747;49.524;8.390;2023-08-06T04:53:01;5.00;;;1.40;;
7338;SDS011;33747;49.524;8.390;2023-08-06T04:55:27;3.72;;;1.17;;
7338;SDS011;33747;49.524;8.390;2023-08-06T04:57:52;4.85;;;1.27;;
7338;SDS011;33747;49.524;8.390;2023-08-06T05:00:17;6.32;;;1.45;;
7338;SDS011;33747;49.524;8.390;2023-08-06T05:02:43;8.75;;;1.90;;
7338;SDS011;33747;49.524;8.390;2023-08-06T05:05:08;2.15;;;1.90;;
7338;SDS011;33747;49.524;8.390;2023-08-06T05:07:33;5.03;;;1.30;;
7338;SDS011;33747;49.524;8.390;2023-08-06T05:09:59;2.28;;;1.45;;
7338;SDS011;33747;49.524;8.390;2023-08-06T05:12:24;1.42;;;1.02;;
7338;SDS011;33747;49.524;8.390;2023-08-06T05:14:50;3.90;;;1.02;;
7338;SDS011;33747;49.524;8.390;2023-08-06T05:17:15;5.00;;;0.77;;
7338;SDS011;33747;49.524;8.390;2023-08-06T05:19:40;1.13;;;0.98;;
7338;SDS011;33747;49.524;8.390;2023-08-06T05:22:06;0.77;;;0.60;;
7338;SDS011;33747;49.524;8.390;2023-08-06T05:24:31;6.05;;;0.95;;
7338;SDS011;33747;49.524;8.390;2023-08-06T05:26:56;0.80;;;0.80;;
7338;SDS011;33747;49.524;8.390;2023-08-06T05:29:22;2.70;;;0.52;;
7338;SDS011;33747;49.524;8.390;2023-08-06T05:31:47;1.35;;;0.60;;
7338;SDS011;33747;49.524;8.390;2023-08-06T05:34:12;0.68;;;0.47;;
7338;SDS011;33747;49.524;8.390;2023-08-06T05:36:38;0.55;;;0.45;;
7338;SDS011;33747;49.524;8.390;2023-08-06T05:39:03;1.13;;;0.50;;
7338;SDS011;33747;49.524;8.390;2023-08-06T05:41:29;0.65;;;0.50;;
7338;SDS011;33747;49.524;8.390;2023-08-06T05:43:54;0.65;;;0.60;;
7338;SDS011;33747;49.524;8.390;2023-08-06T05:46:19;1.27;;;0.70;;
7338;SDS011;33747;49.524;8.390;2023-08-06T05:48:45;0.70;;;0.52;;
7338;SDS011;33747;49.524;8.390;2023-08-06T05:51:10;0.60;;;0.50;;
7338;SDS011;33747;49.524;8.390;2023-08-06T05:53:37;0.43;;;0.32;;
7338;SDS011;33747;49.524;8.390;2023-08-06T05:56:03;2.22;;;1.33;;
7338;SDS011;33747;49.524;8.390;2023-08-06T05:58:28;1.73;;;0.60;;
7338;SDS011;33747;49.524;8.390;2023-08-06T06:00:55;0.85;;;0.52;;
7338;SDS011;33747;49.524;8.390;2023-08-06T06:03:21;2.40;;;0.60;;
7338;SDS011;33747;49.524;8.390;2023-08-06T06:05:46;3.42;;;0.60;;
7338;SDS011;33747;49.524;8.390;2023-08-06T06:08:11;2.88;;;0.77;;
7338;SDS011;33747;49.524;8.390;2023-08-06T06:10:37;1.70;;;0.70;;
7338;SDS011;33747;49.524;8.390;2023-08-06T06:13:02;1.05;;;0.93;;
7338;SDS011;33747;49.524;8.390;2023-08-06T06:15:27;3.33;;;0.70;;
7338;SDS011;33747;49.524;8.390;2023-08-06T06:17:53;1.42;;;0.52;;
7338;SDS011;33747;49.524;8.390;2023-08-06T06:20:18;2.63;;;0.77;;
7338;SDS011;33747;49.524;8.390;2023-08-06T06:22:45;2.58;;;0.80;;
7338;SDS011;33747;49.524;8.390;2023-08-06T06:25:10;2.53;;;0.50;;
7338;SDS011;33747;49.524;8.390;2023-08-06T06:27:36;1.85;;;0.70;;
7338;SDS011;33747;49.524;8.390;2023-08-06T06:30:01;1.23;;;1.10;;
7338;SDS011;33747;49.524;8.390;2023-08-06T06:32:26;3.20;;;1.65;;
7338;SDS011;33747;49.524;8.390;2023-08-06T06:34:52;1.25;;;0.80;;
7338;SDS011;33747;49.524;8.390;2023-08-06T06:37:17;1.67;;;0.70;;
7338;SDS011;33747;49.524;8.390;2023-08-06T06:39:42;3.78;;;0.70;;
7338;SDS011;33747;49.524;8.390;2023-08-06T06:42:09;2.20;;;0.70;;
7338;SDS011;33747;49.524;8.390;2023-08-06T06:44:34;1.13;;;0.60;;
7338;SDS011;33747;49.524;8.390;2023-08-06T06:46:59;2.63;;;0.63;;
7338;SDS011;33747;49.524;8.390;2023-08-06T06:49:25;1.30;;;0.77;;
7338;SDS011;33747;49.524;8.390;2023-08-06T06:51:50;2.05;;;0.65;;
7338;SDS011;33747;49.524;8.390;2023-08-06T06:54:15;0.68;;;0.50;;
7338;SDS011;33747;49.524;8.390;2023-08-06T06:56:41;0.47;;;0.45;;
7338;SDS011;33747;49.524;8.390;2023-08-06T06:59:06;4.82;;;0.90;;
7338;SDS011;33747;49.524;8.390;2023-08-06T07:01:32;1.98;;;0.63;;
7338;SDS011;33747;49.524;8.390;2023-08-06T07:03:57;5.10;;;0.93;;
7338;SDS011;33747;49.524;8.390;2023-08-06T07:06:23;1.95;;;0.88;;
7338;SDS011;33747;49.524;8.390;2023-08-06T07:08:48;2.33;;;0.52;;
7338;SDS011;33747;49.524;8.390;2023-08-06T07:11:14;1.30;;;0.50;;
7338;SDS011;33747;49.524;8.390;2023-08-06T07:13:39;4.10;;;1.17;;
7338;SDS011;33747;49.524;8.390;2023-08-06T07:16:04;2.67;;;0.90;;
7338;SDS011;33747;49.524;8.390;2023-08-06T07:18:30;5.80;;;0.80;;
7338;SDS011;33747;49.524;8.390;2023-08-06T07:20:55;4.57;;;0.70;;
7338;SDS011;33747;49.524;8.390;2023-08-06T07:23:25;2.17;;;0.60;;
7338;SDS011;33747;49.524;8.390;2023-08-06T07:25:51;1.70;;;0.63;;
7338;SDS011;33747;49.524;8.390;2023-08-06T07:28:16;1.73;;;0.70;;
7338;SDS011;33747;49.524;8.390;2023-08-06T07:30:42;1.95;;;0.50;;
7338;SDS011;33747;49.524;8.390;2023-08-06T07:33:08;0.40;;;0.35;;
7338;SDS011;33747;49.524;8.390;2023-08-06T07:35:34;0.47;;;0.47;;
7338;SDS011;33747;49.524;8.390;2023-08-06T07:37:59;1.10;;;0.40;;
7338;SDS011;33747;49.524;8.390;2023-08-06T07:40:25;0.40;;;0.40;;
7338;SDS011;33747;49.524;8.390;2023-08-06T07:42:50;3.70;;;0.50;;
7338;SDS011;33747;49.524;8.390;2023-08-06T07:45:15;0.63;;;0.50;;
7338;SDS011;33747;49.524;8.390;2023-08-06T07:47:41;0.45;;;0.40;;
7338;SDS011;33747;49.524;8.390;2023-08-06T07:50:07;0.43;;;0.40;;
7338;SDS011;33747;49.524;8.390;2023-08-06T07:52:33;0.52;;;0.50;;
7338;SDS011;33747;49.524;8.390;2023-08-06T07:54:59;2.67;;;0.45;;
7338;SDS011;33747;49.524;8.390;2023-08-06T07:57:25;0.55;;;0.38;;
7338;SDS011;33747;49.524;8.390;2023-08-06T07:59:51;1.35;;;0.40;;
7338;SDS011;33747;49.524;8.390;2023-08-06T08:02:18;0.63;;;0.40;;
7338;SDS011;33747;49.524;8.390;2023-08-06T08:04:44;0.43;;;0.43;;
7338;SDS011;33747;49.524;8.390;2023-08-06T08:07:12;0.90;;;0.43;;
7338;SDS011;33747;49.524;8.390;2023-08-06T08:09:37;0.45;;;0.45;;
7338;SDS011;33747;49.524;8.390;2023-08-06T08:12:03;0.43;;;0.43;;
7338;SDS011;33747;49.524;8.390;2023-08-06T08:14:28;0.40;;;0.40;;
7338;SDS011;33747;49.524;8.390;2023-08-06T08:16:54;1.42;;;0.47;;
7338;SDS011;33747;49.524;8.390;2023-08-06T08:19:19;0.73;;;0.55;;
7338;SDS011;33747;49.524;8.390;2023-08-06T08:21:46;0.40;;;0.40;;
7338;SDS011;33747;49.524;8.390;2023-08-06T08:24:11;0.43;;;0.43;;
7338;SDS011;33747;49.524;8.390;2023-08-06T08:26:36;0.30;;;0.30;;
7338;SDS011;33747;49.524;8.390;2023-08-06T08:29:02;0.30;;;0.30;;
7338;SDS011;33747;49.524;8.390;2023-08-06T08:31:27;0.50;;;0.50;;
7338;SDS011;33747;49.524;8.390;2023-08-06T08:33:53;0.55;;;0.40;;
7338;SDS011;33747;49.524;8.390;2023-08-06T08:36:19;0.73;;;0.70;;
7338;SDS011;33747;49.524;8.390;2023-08-06T08:38:44;1.05;;;0.50;;
7338;SDS011;33747;49.524;8.390;2023-08-06T08:41:10;0.22;;;0.22;;
7338;SDS011;33747;49.524;8.390;2023-08-06T08:43:36;0.20;;;0.20;;
7338;SDS011;33747;49.524;8.390;2023-08-06T08:46:01;0.38;;;0.35;;
7338;SDS011;33747;49.524;8.390;2023-08-06T08:48:27;0.30;;;0.30;;
7338;SDS011;33747;49.524;8.390;2023-08-06T08:50:52;2.05;;;0.40;;
7338;SDS011;33747;49.524;8.390;2023-08-06T08:53:21;0.47;;;0.47;;
7338;SDS011;33747;49.524;8.390;2023-08-06T08:55:47;0.38;;;0.38;;
7338;SDS011;33747;49.524;8.390;2023-08-06T08:58:14;2.65;;;0.40;;
7338;SDS011;33747;49.524;8.390;2023-08-06T09:00:41;0.90;;;0.20;;
7338;SDS011;33747;49.524;8.390;2023-08-06T09:03:07;0.85;;;0.40;;
7338;SDS011;33747;49.524;8.390;2023-08-06T09:05:32;0.63;;;0.35;;
7338;SDS011;33747;49.524;8.390;2023-08-06T09:08:02;0.63;;;0.32;;
7338;SDS011;33747;49.524;8.390;2023-08-06T09:10:29;0.30;;;0.30;;
7338;SDS011;33747;49.524;8.390;2023-08-06T09:12:55;0.30;;;0.30;;
7338;SDS011;33747;49.524;8.390;2023-08-06T09:15:24;0.20;;;0.20;;
7338;SDS011;33747;49.524;8.390;2023-08-06T09:17:50;0.30;;;0.30;;
7338;SDS011;33747;49.524;8.390;2023-08-06T09:20:16;2.25;;;0.20;;
7338;SDS011;33747;49.524;8.390;2023-08-06T09:22:41;0.40;;;0.40;;
7338;SDS011;33747;49.524;8.390;2023-08-06T09:25:07;0.40;;;0.40;;
7338;SDS011;33747;49.524;8.390;2023-08-06T09:27:36;0.40;;;0.40;;
7338;SDS011;33747;49.524;8.390;2023-08-06T09:30:02;0.28;;;0.28;;
7338;SDS011;33747;49.524;8.390;2023-08-06T09:32:32;3.20;;;0.30;;
7338;SDS011;33747;49.524;8.390;2023-08-06T09:37:41;2.42;;;0.30;;
7338;SDS011;33747;49.524;8.390;2023-08-06T09:40:23;0.40;;;0.40;;
7338;SDS011;33747;49.524;8.390;2023-08-06T09:42:48;0.30;;;0.30;;
7338;SDS011;33747;49.524;8.390;2023-08-06T09:45:15;0.40;;;0.40;;
7338;SDS011;33747;49.524;8.390;2023-08-06T09:47:41;0.30;;;0.30;;
7338;SDS011;33747;49.524;8.390;2023-08-06T09:50:14;0.40;;;0.40;;
7338;SDS011;33747;49.524;8.390;2023-08-06T09:52:43;0.20;;;0.20;;
7338;SDS011;33747;49.524;8.390;2023-08-06T09:55:10;0.20;;;0.20;;
7338;SDS011;33747;49.524;8.390;2023-08-06T09:57:36;0.20;;;0.20;;
7338;SDS011;33747;49.524;8.390;2023-08-06T10:00:02;0.20;;;0.20;;
7338;SDS011;33747;49.524;8.390;2023-08-06T10:02:27;0.20;;;0.20;;
7338;SDS011;33747;49.524;8.390;2023-08-06T10:04:53;0.40;;;0.40;;
7338;SDS011;33747;49.524;8.390;2023-08-06T10:07:20;0.38;;;0.20;;
7338;SDS011;33747;49.524;8.390;2023-08-06T10:09:47;0.22;;;0.22;;
7338;SDS011;33747;49.524;8.390;2023-08-06T10:12:13;0.22;;;0.22;;
7338;SDS011;33747;49.524;8.390;2023-08-06T10:14:39;0.60;;;0.60;;
7338;SDS011;33747;49.524;8.390;2023-08-06T10:17:04;2.70;;;0.20;;
7338;SDS011;33747;49.524;8.390;2023-08-06T10:19:30;1.17;;;0.30;;
7338;SDS011;33747;49.524;8.390;2023-08-06T10:22:12;0.28;;;0.20;;
7338;SDS011;33747;49.524;8.390;2023-08-06T10:24:48;0.75;;;0.30;;
7338;SDS011;33747;49.524;8.390;2023-08-06T10:27:14;0.25;;;0.25;;
7338;SDS011;33747;49.524;8.390;2023-08-06T10:29:44;0.30;;;0.30;;
7338;SDS011;33747;49.524;8.390;2023-08-06T10:32:10;0.20;;;0.20;;
7338;SDS011;33747;49.524;8.390;2023-08-06T10:34:54;0.30;;;0.30;;
7338;SDS011;33747;49.524;8.390;2023-08-06T10:37:23;0.40;;;0.30;;
7338;SDS011;33747;49.524;8.390;2023-08-06T10:39:50;0.30;;;0.30;;
7338;SDS011;33747;49.524;8.390;2023-08-06T10:42:19;0.35;;;0.35;;
7338;SDS011;33747;49.524;8.390;2023-08-06T10:47:39;0.45;;;0.32;;
7338;SDS011;33747;49.524;8.390;2023-08-06T10:50:06;0.40;;;0.40;;
7338;SDS011;33747;49.524;8.390;2023-08-06T10:52:32;0.30;;;0.30;;
7338;SDS011;33747;49.524;8.390;2023-08-06T10:54:58;0.30;;;0.30;;
7338;SDS011;33747;49.524;8.390;2023-08-06T10:57:24;0.28;;;0.28;;
7338;SDS011;33747;49.524;8.390;2023-08-06T10:59:49;0.22;;;0.22;;
7338;SDS011;33747;49.524;8.390;2023-08-06T11:02:15;0.20;;;0.20;;
7338;SDS011;33747;49.524;8.390;2023-08-06T11:04:41;1.10;;;0.30;;
7338;SDS011;33747;49.524;8.390;2023-08-06T11:07:06;0.98;;;0.32;;
7338;SDS011;33747;49.524;8.390;2023-08-06T11:09:32;2.33;;;0.30;;
7338;SDS011;33747;49.524;8.390;2023-08-06T11:11:57;0.50;;;0.50;;
7338;SDS011;33747;49.524;8.390;2023-08-06T11:14:22;0.85;;;0.40;;
7338;SDS011;33747;49.524;8.390;2023-08-06T11:16:48;0.40;;;0.40;;
7338;SDS011;33747;49.524;8.390;2023-08-06T11:19:13;2.65;;;0.65;;
7338;SDS011;33747;49.524;8.390;2023-08-06T11:21:41;2.33;;;0.40;;
7338;SDS011;33747;49.524;8.390;2023-08-06T11:24:09;2.80;;;0.50;;
7338;SDS011;33747;49.524;8.390;2023-08-06T11:26:36;0.60;;;0.50;;
7338;SDS011;33747;49.524;8.390;2023-08-06T11:29:02;0.40;;;0.40;;
7338;SDS011;33747;49.524;8.390;2023-08-06T11:31:27;3.15;;;0.30;;
7338;SDS011;33747;49.524;8.390;2023-08-06T11:33:53;0.43;;;0.43;;
7338;SDS011;33747;49.524;8.390;2023-08-06T11:36:39;0.30;;;0.30;;
7338;SDS011;33747;49.524;8.390;2023-08-06T11:39:05;0.68;;;0.20;;
7338;SDS011;33747;49.524;8.390;2023-08-06T11:41:31;0.77;;;0.73;;
7338;SDS011;33747;49.524;8.390;2023-08-06T11:44:00;0.82;;;0.60;;
7338;SDS011;33747;49.524;8.390;2023-08-06T11:46:25;3.80;;;0.50;;
7338;SDS011;33747;49.524;8.390;2023-08-06T11:49:00;0.40;;;0.40;;
7338;SDS011;33747;49.524;8.390;2023-08-06T11:51:25;0.38;;;0.38;;
7338;SDS011;33747;49.524;8.390;2023-08-06T11:53:51;0.50;;;0.50;;
7338;SDS011;33747;49.524;8.390;2023-08-06T11:56:22;0.50;;;0.50;;
7338;SDS011;33747;49.524;8.390;2023-08-06T11:58:47;0.82;;;0.60;;
7338;SDS011;33747;49.524;8.390;2023-08-06T12:01:13;1.05;;;0.70;;
7338;SDS011;33747;49.524;8.390;2023-08-06T12:03:39;3.42;;;0.80;;
7338;SDS011;33747;49.524;8.390;2023-08-06T12:06:05;3.17;;;0.82;;
7338;SDS011;33747;49.524;8.390;2023-08-06T12:08:30;0.77;;;0.50;;
7338;SDS011;33747;49.524;8.390;2023-08-06T12:10:55;0.60;;;0.60;;
7338;SDS011;33747;49.524;8.390;2023-08-06T12:13:21;2.38;;;0.85;;
7338;SDS011;33747;49.524;8.390;2023-08-06T12:15:46;0.77;;;0.77;;
7338;SDS011;33747;49.524;8.390;2023-08-06T12:18:12;0.60;;;0.60;;
7338;SDS011;33747;49.524;8.390;2023-08-06T12:20:37;2.78;;;0.73;;
7338;SDS011;33747;49.524;8.390;2023-08-06T12:23:03;1.20;;;0.68;;
7338;SDS011;33747;49.524;8.390;2023-08-06T12:25:29;4.03;;;0.93;;
7338;SDS011;33747;49.524;8.390;2023-08-06T12:27:54;2.92;;;0.93;;
7338;SDS011;33747;49.524;8.390;2023-08-06T12:30:19;0.60;;;0.60;;
7338;SDS011;33747;49.524;8.390;2023-08-06T12:32:45;0.60;;;0.60;;
7338;SDS011;33747;49.524;8.390;2023-08-06T12:35:10;1.83;;;0.90;;
7338;SDS011;33747;49.524;8.390;2023-08-06T12:37:36;1.17;;;0.40;;
7338;SDS011;33747;49.524;8.390;2023-08-06T12:40:03;0.70;;;0.70;;
7338;SDS011;33747;49.524;8.390;2023-08-06T12:42:29;1.20;;;0.85;;
7338;SDS011;33747;49.524;8.390;2023-08-06T12:44:54;2.08;;;0.47;;
7338;SDS011;33747;49.524;8.390;2023-08-06T12:47:19;0.90;;;0.70;;
7338;SDS011;33747;49.524;8.390;2023-08-06T12:49:45;0.80;;;0.80;;
7338;SDS011;33747;49.524;8.390;2023-08-06T12:52:10;1.95;;;0.77;;
7338;SDS011;33747;49.524;8.390;2023-08-06T12:54:37;2.28;;;0.75;;
7338;SDS011;33747;49.524;8.390;2023-08-06T12:57:03;0.60;;;0.60;;
7338;SDS011;33747;49.524;8.390;2023-08-06T12:59:29;0.60;;;0.50;;
7338;SDS011;33747;49.524;8.390;2023-08-06T13:01:55;1.35;;;0.73;;
7338;SDS011;33747;49.524;8.390;2023-08-06T13:04:20;2.20;;;0.70;;
7338;SDS011;33747;49.524;8.390;2023-08-06T13:06:45;0.60;;;0.60;;
7338;SDS011;33747;49.524;8.390;2023-08-06T13:09:11;0.50;;;0.50;;
7338;SDS011;33747;49.524;8.390;2023-08-06T13:11:38;0.60;;;0.57;;
7338;SDS011;33747;49.524;8.390;2023-08-06T13:14:07;1.48;;;0.70;;
7338;SDS011;33747;49.524;8.390;2023-08-06T13:16:38;1.30;;;0.60;;
7338;SDS011;33747;49.524;8.390;2023-08-06T13:19:05;2.50;;;0.50;;
7338;SDS011;33747;49.524;8.390;2023-08-06T13:21:32;1.10;;;0.40;;
7338;SDS011;33747;49.524;8.390;2023-08-06T13:23:59;1.30;;;0.50;;
7338;SDS011;33747;49.524;8.390;2023-08-06T13:26:25;1.02;;;0.40;;
7338;SDS011;33747;49.524;8.390;2023-08-06T13:28:51;1.27;;;0.65;;
7338;SDS011;33747;49.524;8.390;2023-08-06T13:31:16;0.95;;;0.68;;
7338;SDS011;33747;49.524;8.390;2023-08-06T13:33:42;1.45;;;0.57;;
7338;SDS011;33747;49.524;8.390;2023-08-06T13:36:07;0.70;;;0.60;;
7338;SDS011;33747;49.524;8.390;2023-08-06T13:38:32;0.70;;;0.55;;
7338;SDS011;33747;49.524;8.390;2023-08-06T13:40:58;3.03;;;0.55;;
7338;SDS011;33747;49.524;8.390;2023-08-06T13:43:24;0.70;;;0.50;;
7338;SDS011;33747;49.524;8.390;2023-08-06T13:45:49;1.05;;;0.60;;
7338;SDS011;33747;49.524;8.390;2023-08-06T13:48:14;0.50;;;0.50;;
7338;SDS011;33747;49.524;8.390;2023-08-06T13:50:40;2.03;;;0.80;;
7338;SDS011;33747;49.524;8.390;2023-08-06T13:53:05;1.55;;;0.60;;
7338;SDS011;33747;49.524;8.390;2023-08-06T13:55:31;4.78;;;0.50;;
7338;SDS011;33747;49.524;8.390;2023-08-06T13:57:57;0.65;;;0.50;;
7338;SDS011;33747;49.524;8.390;2023-08-06T14:00:22;2.78;;;0.90;;
7338;SDS011;33747;49.524;8.390;2023-08-06T14:02:47;1.10;;;0.57;;
7338;SDS011;33747;49.524;8.390;2023-08-06T14:05:13;0.50;;;0.50;;
7338;SDS011;33747;49.524;8.390;2023-08-06T14:07:38;0.52;;;0.52;;
7338;SDS011;33747;49.524;8.390;2023-08-06T14:10:04;2.55;;;0.70;;
7338;SDS011;33747;49.524;8.390;2023-08-06T14:12:30;1.65;;;0.45;;
7338;SDS011;33747;49.524;8.390;2023-08-06T14:14:56;4.15;;;0.95;;
7338;SDS011;33747;49.524;8.390;2023-08-06T14:17:21;5.60;;;0.70;;
7338;SDS011;33747;49.524;8.390;2023-08-06T14:19:46;0.50;;;0.50;;
7338;SDS011;33747;49.524;8.390;2023-08-06T14:22:12;1.73;;;0.47;;
7338;SDS011;33747;49.524;8.390;2023-08-06T14:24:37;1.75;;;0.65;;
7338;SDS011;33747;49.524;8.390;2023-08-06T14:27:03;0.85;;;0.60;;
7338;SDS011;33747;49.524;8.390;2023-08-06T14:29:29;0.63;;;0.60;;
7338;SDS011;33747;49.524;8.390;2023-08-06T14:31:54;1.77;;;0.55;;
7338;SDS011;33747;49.524;8.390;2023-08-06T14:34:20;0.70;;;0.40;;
7338;SDS011;33747;49.524;8.390;2023-08-06T14:36:45;0.60;;;0.60;;
7338;SDS011;33747;49.524;8.390;2023-08-06T14:39:11;3.30;;;0.65;;
7338;SDS011;33747;49.524;8.390;2023-08-06T14:41:36;1.27;;;0.68;;
7338;SDS011;33747;49.524;8.390;2023-08-06T14:44:02;1.08;;;0.65;;
7338;SDS011;33747;49.524;8.390;2023-08-06T14:46:27;1.38;;;0.80;;
7338;SDS011;33747;49.524;8.390;2023-08-06T14:48:52;0.93;;;0.60;;
7338;SDS011;33747;49.524;8.390;2023-08-06T14:51:18;0.90;;;0.50;;
7338;SDS011;33747;49.524;8.390;2023-08-06T14:53:46;0.50;;;0.50;;
7338;SDS011;33747;49.524;8.390;2023-08-06T14:56:11;6.10;;;0.43;;
7338;SDS011;33747;49.524;8.390;2023-08-06T14:58:37;0.88;;;0.50;;
7338;SDS011;33747;49.524;8.390;2023-08-06T15:01:02;1.15;;;0.57;;
7338;SDS011;33747;49.524;8.390;2023-08-06T15:03:28;1.45;;;0.40;;